Time;durP1;ratioP1;P1;durP2;ratioP2;P2;SDS_P1;SDS_P2;PMS_P1;PMS_P2;Temp;Humidity;BMP_temperature;BMP_pressure;BME280_temperature;BME280_humidity;BME280_pressure;Samples;Min_cycle;Max_cycle;Signal;HPM_P1;HPM_P2
2023/05/30 00:01:06;;;;;;;4.40;4.00;;;;;;;;;;6245738;23;20016;-88
2023/05/30 00:03:35;;;;;;;6.32;4.60;;;;;;;;;;6245736;23;20412;-87
2023/05/30 00:06:03;;;;;;;8.20;5.53;;;;;;;;;;6246191;23;20043;-88
2023/05/30 00:08:30;;;;;;;6.82;4.95;;;;;;;;;;6245596;23;20016;-87
2023/05/30 00:10:58;;;;;;;8.00;4.78;;;;;;;;;;6245328;23;20030;-85
2023/05/30 00:13:28;;;;;;;7.18;4.82;;;;;;;;;;6245592;23;20385;-87
2023/05/30 00:15:57;;;;;;;6.60;4.00;;;;;;;;;;6245529;23;20016;-88
2023/05/30 00:18:25;;;;;;;7.05;5.05;;;;;;;;;;6246107;23;20020;-88
2023/05/30 00:20:52;;;;;;;8.45;4.63;;;;;;;;;;6245604;23;20020;-88
2023/05/30 00:23:20;;;;;;;11.73;5.00;;;;;;;;;;6245498;23;20384;-87
2023/05/30 00:25:48;;;;;;;6.75;4.90;;;;;;;;;;6245604;23;20023;-87
2023/05/30 00:28:15;;;;;;;10.70;5.00;;;;;;;;;;6245633;23;20031;-87
2023/05/30 00:30:43;;;;;;;6.32;4.05;;;;;;;;;;6245341;23;20020;-88
2023/05/30 00:33:13;;;;;;;5.78;4.00;;;;;;;;;;6245536;23;20354;-87
2023/05/30 00:35:40;;;;;;;7.47;4.72;;;;;;;;;;6245266;23;20016;-87
2023/05/30 00:38:07;;;;;;;6.68;4.32;;;;;;;;;;6245399;23;20031;-88
2023/05/30 00:40:35;;;;;;;11.73;4.63;;;;;;;;;;6245573;23;20016;-87
2023/05/30 00:43:02;;;;;;;8.10;4.95;;;;;;;;;;6245256;23;20446;-87
2023/05/30 00:45:29;;;;;;;8.50;4.40;;;;;;;;;;6245777;23;20024;-88
2023/05/30 00:47:57;;;;;;;10.10;5.40;;;;;;;;;;6245565;23;20448;-87
2023/05/30 00:50:28;;;;;;;7.82;4.53;;;;;;;;;;6245763;23;20344;-88
2023/05/30 00:52:55;;;;;;;8.18;4.60;;;;;;;;;;6245479;23;20090;-87
2023/05/30 00:55:23;;;;;;;8.68;5.20;;;;;;;;;;6245134;23;20066;-88
2023/05/30 00:57:51;;;;;;;6.35;4.38;;;;;;;;;;6245130;23;20020;-87
2023/05/30 01:00:19;;;;;;;6.60;4.68;;;;;;;;;;6245219;23;20012;-87
2023/05/30 01:02:47;;;;;;;5.20;4.60;;;;;;;;;;6245400;23;20066;-88
2023/05/30 01:05:15;;;;;;;8.07;4.70;;;;;;;;;;6245086;23;20348;-87
2023/05/30 01:07:44;;;;;;;7.25;4.80;;;;;;;;;;6245428;23;20016;-87
2023/05/30 01:10:12;;;;;;;8.27;4.60;;;;;;;;;;6245157;23;20029;-88
2023/05/30 01:12:48;;;;;;;6.57;4.38;;;;;;;;;;6245213;23;20020;-87
2023/05/30 01:15:24;;;;;;;7.22;4.70;;;;;;;;;;6244977;23;20019;-87
2023/05/30 01:18:01;;;;;;;11.50;5.07;;;;;;;;;;6245281;23;20023;-87
2023/05/30 01:20:31;;;;;;;5.90;4.47;;;;;;;;;;6244913;23;20437;-88
2023/05/30 01:23:18;;;;;;;6.60;4.72;;;;;;;;;;6244945;23;20016;-87
2023/05/30 01:25:52;;;;;;;9.65;4.78;;;;;;;;;;6244973;23;20019;-85
2023/05/30 01:28:22;;;;;;;8.57;4.72;;;;;;;;;;6245106;23;20012;-87
2023/05/30 01:30:52;;;;;;;7.35;4.65;;;;;;;;;;6244750;23;20089;-87
2023/05/30 01:33:22;;;;;;;6.78;4.90;;;;;;;;;;6244435;23;20345;-88
2023/05/30 01:35:50;;;;;;;6.68;4.50;;;;;;;;;;6245666;23;20074;-87
2023/05/30 01:38:17;;;;;;;6.53;4.65;;;;;;;;;;6245123;23;20015;-88
2023/05/30 01:40:48;;;;;;;8.13;5.03;;;;;;;;;;6244505;23;20043;-88
2023/05/30 01:43:22;;;;;;;9.27;5.28;;;;;;;;;;6244953;23;20016;-88
2023/05/30 01:45:49;;;;;;;7.28;4.40;;;;;;;;;;6244973;23;20020;-88
2023/05/30 01:48:28;;;;;;;7.45;5.03;;;;;;;;;;6244992;23;20066;-88
2023/05/30 01:50:55;;;;;;;13.10;5.30;;;;;;;;;;6245108;23;20020;-87
2023/05/30 01:53:31;;;;;;;6.18;4.38;;;;;;;;;;6245311;23;20027;-87
2023/05/30 01:56:00;;;;;;;10.50;4.75;;;;;;;;;;6245022;23;20020;-87
2023/05/30 01:58:28;;;;;;;7.40;4.53;;;;;;;;;;6245047;23;20020;-88
2023/05/30 02:00:56;;;;;;;6.05;4.47;;;;;;;;;;6244677;23;20013;-88
2023/05/30 02:03:25;;;;;;;9.25;4.88;;;;;;;;;;6244293;23;20020;-88
2023/05/30 02:05:52;;;;;;;9.57;4.93;;;;;;;;;;6245307;23;20020;-87
2023/05/30 02:08:19;;;;;;;7.78;4.63;;;;;;;;;;6245876;23;20017;-88
2023/05/30 02:10:47;;;;;;;7.63;4.47;;;;;;;;;;6248083;23;20024;-88
2023/05/30 02:13:14;;;;;;;9.68;5.18;;;;;;;;;;6269463;23;20074;-88
2023/05/30 02:15:41;;;;;;;7.82;4.00;;;;;;;;;;6255600;23;20438;-88
2023/05/30 02:18:10;;;;;;;6.07;4.10;;;;;;;;;;6247253;23;20047;-88
2023/05/30 02:20:37;;;;;;;9.57;5.30;;;;;;;;;;6245132;23;20472;-88
2023/05/30 02:23:04;;;;;;;8.68;4.78;;;;;;;;;;6244815;23;20401;-88
2023/05/30 02:25:32;;;;;;;7.72;4.53;;;;;;;;;;6244430;23;20024;-88
2023/05/30 02:28:00;;;;;;;7.30;4.35;;;;;;;;;;6244682;23;20082;-88
2023/05/30 02:30:27;;;;;;;7.38;4.50;;;;;;;;;;6244400;23;20090;-88
2023/05/30 02:32:54;;;;;;;6.07;4.68;;;;;;;;;;6245108;23;20122;-88
2023/05/30 02:35:22;;;;;;;6.28;4.38;;;;;;;;;;6246422;23;20016;-88
2023/05/30 02:37:49;;;;;;;10.82;4.93;;;;;;;;;;6246503;23;20023;-87
2023/05/30 02:40:16;;;;;;;11.15;4.57;;;;;;;;;;6246405;23;20448;-88
2023/05/30 02:42:44;;;;;;;6.53;4.53;;;;;;;;;;6246222;23;20592;-88
2023/05/30 02:45:11;;;;;;;9.00;4.90;;;;;;;;;;6246190;23;20023;-88
2023/05/30 02:47:38;;;;;;;9.48;5.53;;;;;;;;;;6246886;23;20024;-87
2023/05/30 02:50:06;;;;;;;7.40;4.65;;;;;;;;;;6246473;23;20022;-88
2023/05/30 02:52:33;;;;;;;11.82;4.57;;;;;;;;;;6246444;23;20016;-88
2023/05/30 02:55:04;;;;;;;7.20;4.53;;;;;;;;;;6246735;23;20020;-88
2023/05/30 02:57:32;;;;;;;6.82;4.85;;;;;;;;;;6246563;23;20016;-88
2023/05/30 02:59:59;;;;;;;8.30;4.50;;;;;;;;;;6246632;23;20027;-88
2023/05/30 03:02:26;;;;;;;7.15;4.60;;;;;;;;;;6246348;23;20020;-88
2023/05/30 03:04:53;;;;;;;7.32;4.57;;;;;;;;;;6246520;23;20017;-88
2023/05/30 03:07:21;;;;;;;9.32;5.32;;;;;;;;;;6246452;23;20469;-88
2023/05/30 03:09:48;;;;;;;8.00;4.82;;;;;;;;;;6246589;23;20012;-88
2023/05/30 03:12:16;;;;;;;9.52;5.28;;;;;;;;;;6246203;23;20020;-88
2023/05/30 03:14:43;;;;;;;11.23;4.72;;;;;;;;;;6246308;23;20066;-88
2023/05/30 03:17:10;;;;;;;7.20;4.80;;;;;;;;;;6246612;23;20020;-88
2023/05/30 03:19:37;;;;;;;7.25;4.72;;;;;;;;;;6246193;23;20020;-88
2023/05/30 03:22:05;;;;;;;11.60;5.10;;;;;;;;;;6246171;23;20070;-88
2023/05/30 03:24:33;;;;;;;6.50;4.80;;;;;;;;;;6245928;23;20016;-88
2023/05/30 03:27:00;;;;;;;8.07;4.93;;;;;;;;;;6246069;23;20508;-88
2023/05/30 03:29:28;;;;;;;10.27;4.75;;;;;;;;;;6246865;23;20035;-88
2023/05/30 03:31:55;;;;;;;11.30;5.22;;;;;;;;;;6245918;23;20028;-88
2023/05/30 03:34:22;;;;;;;6.43;4.78;;;;;;;;;;6246043;23;20095;-88
2023/05/30 03:36:52;;;;;;;6.70;5.00;;;;;;;;;;6245947;23;20024;-88
2023/05/30 03:39:20;;;;;;;8.82;5.10;;;;;;;;;;6245671;23;20016;-88
2023/05/30 03:41:47;;;;;;;10.43;5.22;;;;;;;;;;6246404;23;20027;-88
2023/05/30 03:44:15;;;;;;;15.43;5.70;;;;;;;;;;6245708;23;20535;-88
2023/05/30 03:46:42;;;;;;;8.32;4.90;;;;;;;;;;6245233;23;20020;-88
2023/05/30 03:49:09;;;;;;;9.90;4.65;;;;;;;;;;6245841;23;20470;-88
2023/05/30 03:51:36;;;;;;;18.10;6.13;;;;;;;;;;6245694;23;20062;-90
2023/05/30 03:54:04;;;;;;;10.20;5.50;;;;;;;;;;6245652;23;20073;-88
2023/05/30 03:56:31;;;;;;;9.50;6.03;;;;;;;;;;6245735;23;20318;-88
2023/05/30 03:58:59;;;;;;;7.13;4.85;;;;;;;;;;6245657;23;20016;-88
2023/05/30 04:01:27;;;;;;;13.00;6.55;;;;;;;;;;6245602;23;20024;-88
2023/05/30 04:03:55;;;;;;;10.32;5.68;;;;;;;;;;6245675;23;20020;-88
2023/05/30 04:06:24;;;;;;;8.40;5.30;;;;;;;;;;6245112;23;20074;-88
2023/05/30 04:08:52;;;;;;;12.02;6.63;;;;;;;;;;6245596;23;20012;-88
2023/05/30 04:11:19;;;;;;;10.98;6.43;;;;;;;;;;6245483;23;20066;-88
2023/05/30 04:13:46;;;;;;;9.88;6.07;;;;;;;;;;6245743;23;20024;-88
2023/05/30 04:16:13;;;;;;;9.55;5.00;;;;;;;;;;6245688;23;20017;-88
2023/05/30 04:18:43;;;;;;;9.38;4.43;;;;;;;;;;6245217;23;20420;-89
2023/05/30 04:21:14;;;;;;;6.07;4.10;;;;;;;;;;6245603;23;20523;-88
2023/05/30 04:23:42;;;;;;;6.40;4.20;;;;;;;;;;6245342;23;20121;-88
2023/05/30 04:26:10;;;;;;;9.32;4.38;;;;;;;;;;6245308;23;20507;-88
2023/05/30 04:28:38;;;;;;;24.38;15.27;;;;;;;;;;6245860;23;20099;-88
2023/05/30 04:31:09;;;;;;;34.60;20.10;;;;;;;;;;6244885;23;20091;-88
2023/05/30 04:33:48;;;;;;;31.52;20.60;;;;;;;;;;6245545;23;20020;-88
2023/05/30 04:36:19;;;;;;;46.08;28.25;;;;;;;;;;6245153;23;20023;-88
2023/05/30 04:38:48;;;;;;;59.17;35.22;;;;;;;;;;6245451;23;20050;-88
2023/05/30 04:41:20;;;;;;;127.38;72.47;;;;;;;;;;6245568;23;20087;-87
2023/05/30 04:43:52;;;;;;;54.08;30.13;;;;;;;;;;6245796;23;20087;-87
2023/05/30 04:46:23;;;;;;;28.92;17.70;;;;;;;;;;6247266;23;20019;-87
2023/05/30 04:48:52;;;;;;;15.52;10.75;;;;;;;;;;6247166;23;20020;-88
2023/05/30 04:51:23;;;;;;;16.30;8.55;;;;;;;;;;6246356;23;20023;-88
2023/05/30 04:53:51;;;;;;;25.27;9.20;;;;;;;;;;6246611;23;20050;-88
2023/05/30 04:56:22;;;;;;;21.42;7.95;;;;;;;;;;6246362;23;20043;-87
2023/05/30 04:58:51;;;;;;;13.65;5.72;;;;;;;;;;6249202;23;20077;-88
2023/05/30 05:01:20;;;;;;;7.32;4.88;;;;;;;;;;6254899;23;20016;-87
2023/05/30 05:03:48;;;;;;;11.88;4.32;;;;;;;;;;6267603;23;20004;-86
2023/05/30 05:06:15;;;;;;;9.43;4.43;;;;;;;;;;6255151;23;20047;-88
2023/05/30 05:08:43;;;;;;;8.50;4.50;;;;;;;;;;6248592;23;20020;-87
2023/05/30 05:11:10;;;;;;;7.32;4.25;;;;;;;;;;6245823;23;20020;-89
2023/05/30 05:13:37;;;;;;;7.70;4.65;;;;;;;;;;6245094;23;20523;-87
2023/05/30 05:16:06;;;;;;;7.88;4.63;;;;;;;;;;6245047;23;20016;-88
2023/05/30 05:18:33;;;;;;;4.35;3.53;;;;;;;;;;6245784;23;20024;-87
2023/05/30 05:21:00;;;;;;;9.07;4.00;;;;;;;;;;6245273;23;20091;-85
2023/05/30 05:23:29;;;;;;;7.75;3.25;;;;;;;;;;6244766;23;20073;-88
2023/05/30 05:25:56;;;;;;;12.52;4.05;;;;;;;;;;6245027;23;20016;-87
2023/05/30 05:28:24;;;;;;;12.98;4.10;;;;;;;;;;6245667;23;20020;-87
2023/05/30 05:30:52;;;;;;;11.93;3.75;;;;;;;;;;6244634;23;20020;-87
2023/05/30 05:33:20;;;;;;;5.38;2.88;;;;;;;;;;6243800;23;20349;-87
2023/05/30 05:35:48;;;;;;;10.45;3.15;;;;;;;;;;6245399;23;20484;-87
2023/05/30 05:38:16;;;;;;;5.72;3.00;;;;;;;;;;6244728;23;20511;-86
2023/05/30 05:40:44;;;;;;;5.90;2.67;;;;;;;;;;6244485;23;20020;-86
2023/05/30 05:43:11;;;;;;;6.43;2.08;;;;;;;;;;6243882;23;20070;-87
2023/05/30 05:45:38;;;;;;;4.55;2.10;;;;;;;;;;6244877;23;20523;-87
2023/05/30 05:48:06;;;;;;;5.00;2.55;;;;;;;;;;6244714;23;20020;-85
2023/05/30 05:50:33;;;;;;;6.15;2.50;;;;;;;;;;6244634;23;20031;-86
2023/05/30 05:53:00;;;;;;;6.35;2.10;;;;;;;;;;6244767;23;20024;-87
2023/05/30 05:55:28;;;;;;;8.85;2.45;;;;;;;;;;6244654;23;20085;-86
2023/05/30 05:57:55;;;;;;;5.93;2.22;;;;;;;;;;6244923;23;20077;-87
2023/05/30 06:00:24;;;;;;;6.28;2.05;;;;;;;;;;6244853;23;20050;-88
2023/05/30 06:02:52;;;;;;;5.97;2.38;;;;;;;;;;6244520;23;20048;-87
2023/05/30 06:05:20;;;;;;;4.90;2.00;;;;;;;;;;6244556;23;20051;-88
2023/05/30 06:07:47;;;;;;;4.72;2.10;;;;;;;;;;6245056;23;20074;-87
2023/05/30 06:10:14;;;;;;;3.67;1.90;;;;;;;;;;6247249;23;20464;-85
2023/05/30 06:12:42;;;;;;;4.45;1.95;;;;;;;;;;6248116;23;20523;-88
2023/05/30 06:15:09;;;;;;;4.38;2.13;;;;;;;;;;6246565;23;20453;-88
2023/05/30 06:17:36;;;;;;;4.97;2.45;;;;;;;;;;6246683;23;20020;-89
2023/05/30 06:20:04;;;;;;;5.28;2.40;;;;;;;;;;6246983;23;20012;-88
2023/05/30 06:22:32;;;;;;;4.75;2.20;;;;;;;;;;6246884;23;20019;-89
2023/05/30 06:24:59;;;;;;;5.40;2.38;;;;;;;;;;6246819;23;20035;-88
2023/05/30 06:27:26;;;;;;;3.92;1.90;;;;;;;;;;6246948;23;20449;-89
2023/05/30 06:29:53;;;;;;;6.07;1.95;;;;;;;;;;6246947;23;20457;-88
2023/05/30 06:32:21;;;;;;;4.55;1.80;;;;;;;;;;6246501;23;20262;-87
2023/05/30 06:34:48;;;;;;;5.53;2.10;;;;;;;;;;6246943;23;20042;-88
2023/05/30 06:37:16;;;;;;;5.50;2.13;;;;;;;;;;6246972;23;20016;-88
2023/05/30 06:39:43;;;;;;;6.47;1.75;;;;;;;;;;6247247;23;20079;-88
2023/05/30 06:42:11;;;;;;;7.28;2.00;;;;;;;;;;6246960;23;20016;-87
2023/05/30 06:44:38;;;;;;;7.55;2.20;;;;;;;;;;6246544;23;20031;-91
2023/05/30 06:47:06;;;;;;;2.85;1.60;;;;;;;;;;6246347;23;20012;-85
2023/05/30 06:49:33;;;;;;;6.13;2.08;;;;;;;;;;6246826;23;20024;-87
2023/05/30 06:52:00;;;;;;;4.30;1.80;;;;;;;;;;6247131;23;20024;-87
2023/05/30 06:54:28;;;;;;;10.38;2.00;;;;;;;;;;6246409;23;20602;-87
2023/05/30 06:56:55;;;;;;;4.13;1.70;;;;;;;;;;6246409;23;20020;-90
2023/05/30 06:59:22;;;;;;;8.35;2.15;;;;;;;;;;6246563;23;20074;-90
2023/05/30 07:01:50;;;;;;;5.05;1.85;;;;;;;;;;6246514;23;20078;-87
2023/05/30 07:04:17;;;;;;;6.47;1.80;;;;;;;;;;6247404;23;20020;-87
2023/05/30 07:06:44;;;;;;;5.53;1.70;;;;;;;;;;6246667;23;20026;-88
2023/05/30 07:09:12;;;;;;;2.50;1.75;;;;;;;;;;6247026;23;20031;-86
2023/05/30 07:11:39;;;;;;;3.13;1.70;;;;;;;;;;6246333;23;20019;-87
2023/05/30 07:14:06;;;;;;;6.80;1.98;;;;;;;;;;6247035;23;20404;-87
2023/05/30 07:16:34;;;;;;;2.97;1.58;;;;;;;;;;6246498;23;20024;-89
2023/05/30 07:19:01;;;;;;;5.93;1.88;;;;;;;;;;6246071;23;20023;-85
2023/05/30 07:21:39;;;;;;;3.33;1.63;;;;;;;;;;6246286;23;20351;-85
2023/05/30 07:24:06;;;;;;;5.10;1.63;;;;;;;;;;6245864;23;20099;-83
2023/05/30 07:26:36;;;;;;;3.53;1.83;;;;;;;;;;6245998;23;20035;-88
2023/05/30 07:29:04;;;;;;;5.05;1.95;;;;;;;;;;6246392;23;20074;-88
2023/05/30 07:31:31;;;;;;;6.00;1.73;;;;;;;;;;6245591;23;20090;-87
2023/05/30 07:33:58;;;;;;;7.35;1.65;;;;;;;;;;6245650;23;20020;-84
2023/05/30 07:36:26;;;;;;;3.33;1.55;;;;;;;;;;6245799;23;20020;-85
2023/05/30 07:38:53;;;;;;;2.25;1.25;;;;;;;;;;6245784;23;20066;-87
2023/05/30 07:41:22;;;;;;;4.47;1.92;;;;;;;;;;6246125;23;20016;-85
2023/05/30 07:43:49;;;;;;;8.63;1.73;;;;;;;;;;6246840;23;20074;-88
2023/05/30 07:46:17;;;;;;;4.47;1.42;;;;;;;;;;6246650;23;20020;-87
2023/05/30 07:48:44;;;;;;;4.50;1.40;;;;;;;;;;6249347;23;20039;-87
2023/05/30 07:51:12;;;;;;;3.50;1.50;;;;;;;;;;6250239;23;20548;-84
2023/05/30 07:53:39;;;;;;;3.95;1.83;;;;;;;;;;6246801;23;20040;-89
2023/05/30 07:56:07;;;;;;;10.38;2.13;;;;;;;;;;6246357;23;20020;-86
2023/05/30 07:58:34;;;;;;;7.60;1.80;;;;;;;;;;6245349;23;20345;-85
2023/05/30 08:01:02;;;;;;;7.85;1.92;;;;;;;;;;6245283;23;20016;-84
2023/05/30 08:03:29;;;;;;;4.03;1.80;;;;;;;;;;6245303;23;20027;-85
2023/05/30 08:05:57;;;;;;;5.18;1.35;;;;;;;;;;6245481;23;20020;-85
2023/05/30 08:08:25;;;;;;;6.10;1.83;;;;;;;;;;6245581;23;20028;-85
2023/05/30 08:10:53;;;;;;;5.43;1.77;;;;;;;;;;6245456;23;20020;-87
2023/05/30 08:13:28;;;;;;;5.00;1.50;;;;;;;;;;6245429;23;20352;-87
2023/05/30 08:15:55;;;;;;;4.57;1.65;;;;;;;;;;6245667;23;20261;-86
2023/05/30 08:18:23;;;;;;;5.47;1.90;;;;;;;;;;6245782;23;20020;-87
2023/05/30 08:20:54;;;;;;;4.15;1.50;;;;;;;;;;6248390;23;20020;-86
2023/05/30 08:23:22;;;;;;;4.72;1.73;;;;;;;;;;6245379;23;20448;-88
2023/05/30 08:25:50;;;;;;;6.75;1.92;;;;;;;;;;6245957;23;20039;-86
2023/05/30 08:28:17;;;;;;;4.10;1.65;;;;;;;;;;6245573;23;20361;-88
2023/05/30 08:30:48;;;;;;;4.93;1.90;;;;;;;;;;6245403;23;20027;-87
2023/05/30 08:33:19;;;;;;;7.18;2.10;;;;;;;;;;6246376;23;20392;-89
2023/05/30 08:35:47;;;;;;;5.03;1.83;;;;;;;;;;6245596;23;20016;-86
2023/05/30 08:38:14;;;;;;;5.53;2.00;;;;;;;;;;6245168;23;20074;-84
2023/05/30 08:40:42;;;;;;;11.77;2.30;;;;;;;;;;6245168;23;20016;-87
2023/05/30 08:43:10;;;;;;;3.75;1.83;;;;;;;;;;6244948;23;20388;-85
2023/05/30 08:45:38;;;;;;;4.75;1.80;;;;;;;;;;6244885;23;20016;-86
2023/05/30 08:48:09;;;;;;;8.82;2.05;;;;;;;;;;6247056;23;20028;-86
2023/05/30 08:50:37;;;;;;;3.05;1.77;;;;;;;;;;6244871;23;20016;-88
2023/05/30 08:53:08;;;;;;;5.88;1.73;;;;;;;;;;6245322;23;20457;-88
2023/05/30 08:55:43;;;;;;;7.68;2.95;;;;;;;;;;6245450;23;20070;-88
2023/05/30 08:58:19;;;;;;;6.97;2.10;;;;;;;;;;6245453;23;20074;-86
2023/05/30 09:00:46;;;;;;;9.50;2.05;;;;;;;;;;6244024;23;20012;-89
2023/05/30 09:03:15;;;;;;;6.65;1.90;;;;;;;;;;6245133;23;20095;-88
2023/05/30 09:05:43;;;;;;;4.57;2.35;;;;;;;;;;6246862;23;20457;-88
2023/05/30 09:08:11;;;;;;;4.75;1.95;;;;;;;;;;6244651;23;20070;-83
2023/05/30 09:10:50;;;;;;;7.72;1.75;;;;;;;;;;6244784;23;20012;-85
2023/05/30 09:13:18;;;;;;;2.75;1.67;;;;;;;;;;6245011;23;20070;-85
2023/05/30 09:15:45;;;;;;;2.80;1.55;;;;;;;;;;6244543;23;20020;-88
2023/05/30 09:18:13;;;;;;;5.03;1.60;;;;;;;;;;6219786;23;20081;-89
2023/05/30 09:20:40;;;;;;;3.13;1.58;;;;;;;;;;6245498;23;20046;-88
2023/05/30 09:23:08;;;;;;;5.63;1.63;;;;;;;;;;6244780;23;20020;-94
2023/05/30 09:25:46;;;;;;;4.22;1.98;;;;;;;;;;6244611;23;20024;-84
2023/05/30 09:28:14;;;;;;;5.50;2.00;;;;;;;;;;6244980;23;20074;-89
2023/05/30 09:31:01;;;;;;;4.55;1.90;;;;;;;;;;6244547;23;20016;-89
2023/05/30 09:33:42;;;;;;;7.40;1.90;;;;;;;;;;6244651;23;20024;-87
2023/05/30 09:36:19;;;;;;;2.50;1.57;;;;;;;;;;6245293;23;20024;-87
2023/05/30 09:39:01;;;;;;;3.30;1.75;;;;;;;;;;6244643;23;20330;-87
2023/05/30 09:41:29;;;;;;;4.00;1.70;;;;;;;;;;6245289;23;20027;-84
2023/05/30 09:43:57;;;;;;;4.38;1.45;;;;;;;;;;6244721;23;20027;-87
2023/05/30 09:46:29;;;;;;;3.92;1.48;;;;;;;;;;6245772;23;20027;-88
2023/05/30 09:48:57;;;;;;;4.72;1.77;;;;;;;;;;6244721;23;20067;-88
2023/05/30 09:51:25;;;;;;;5.60;1.48;;;;;;;;;;6245361;23;20066;-87
2023/05/30 09:53:54;;;;;;;2.92;1.58;;;;;;;;;;6244582;23;20024;-87
2023/05/30 09:56:29;;;;;;;4.70;1.92;;;;;;;;;;6244401;23;20023;-87
2023/05/30 09:59:02;;;;;;;7.40;1.60;;;;;;;;;;6244400;23;20075;-86
2023/05/30 10:01:36;;;;;;;3.88;1.77;;;;;;;;;;6244814;23;20020;-88
2023/05/30 10:04:20;;;;;;;5.25;1.77;;;;;;;;;;6244748;23;20107;-86
2023/05/30 10:06:49;;;;;;;2.88;1.30;;;;;;;;;;6245055;23;20023;-89
2023/05/30 10:09:16;;;;;;;5.43;1.70;;;;;;;;;;6244873;23;20020;-86
2023/05/30 10:11:44;;;;;;;6.50;1.40;;;;;;;;;;6244646;23;20396;-88
2023/05/30 10:14:12;;;;;;;3.90;1.30;;;;;;;;;;6244864;23;20095;-90
2023/05/30 10:16:42;;;;;;;7.57;1.42;;;;;;;;;;6244650;23;20016;-90
2023/05/30 10:19:12;;;;;;;2.78;1.17;;;;;;;;;;6244532;23;20040;-88
2023/05/30 10:21:40;;;;;;;2.80;1.40;;;;;;;;;;6244885;23;20016;-88
2023/05/30 10:24:10;;;;;;;5.05;1.45;;;;;;;;;;6244177;23;20054;-87
2023/05/30 10:26:40;;;;;;;12.98;1.88;;;;;;;;;;6244927;23;20024;-87
2023/05/30 10:29:13;;;;;;;4.35;1.58;;;;;;;;;;6248182;23;20020;-86
2023/05/30 10:31:40;;;;;;;4.93;1.58;;;;;;;;;;6247704;23;20038;-86
2023/05/30 10:34:13;;;;;;;2.55;1.23;;;;;;;;;;6244479;23;20103;-87
2023/05/30 10:36:42;;;;;;;2.83;1.40;;;;;;;;;;6244370;23;20452;-87
2023/05/30 10:39:27;;;;;;;6.03;1.70;;;;;;;;;;6244445;23;20081;-87
2023/05/30 10:41:58;;;;;;;2.85;1.33;;;;;;;;;;6244615;23;20020;-84
2023/05/30 10:44:44;;;;;;;3.58;1.80;;;;;;;;;;6244953;23;20097;-86
2023/05/30 10:47:32;;;;;;;5.40;1.30;;;;;;;;;;6245121;23;20023;-88
2023/05/30 10:50:03;;;;;;;8.65;1.58;;;;;;;;;;6170292;23;20023;-85
2023/05/30 10:52:31;;;;;;;3.25;1.27;;;;;;;;;;6244073;23;20016;-85
2023/05/30 10:54:58;;;;;;;4.80;1.70;;;;;;;;;;6246619;23;20020;-87
2023/05/30 10:57:28;;;;;;;5.22;2.17;;;;;;;;;;6246100;23;20361;-86
2023/05/30 10:59:56;;;;;;;7.43;1.80;;;;;;;;;;6246298;23;20024;-86
2023/05/30 11:02:36;;;;;;;3.55;1.42;;;;;;;;;;6246383;23;20050;-85
2023/05/30 11:05:08;;;;;;;3.72;1.48;;;;;;;;;;6246521;23;20341;-88
2023/05/30 11:07:37;;;;;;;3.55;1.50;;;;;;;;;;6246215;23;20024;-89
2023/05/30 11:10:06;;;;;;;8.05;1.60;;;;;;;;;;6246605;23;20192;-86
2023/05/30 11:12:45;;;;;;;5.03;1.58;;;;;;;;;;6246366;23;20024;-88
2023/05/30 11:15:16;;;;;;;3.03;1.30;;;;;;;;;;6245990;23;20016;-87
2023/05/30 11:17:44;;;;;;;7.55;1.90;;;;;;;;;;6246824;23;20027;-90
2023/05/30 11:20:14;;;;;;;6.97;1.42;;;;;;;;;;6246271;23;20070;-86
2023/05/30 11:23:02;;;;;;;8.23;1.70;;;;;;;;;;6247009;23;20035;-89
2023/05/30 11:25:33;;;;;;;3.88;1.58;;;;;;;;;;6246178;23;20016;-89
2023/05/30 11:28:03;;;;;;;3.42;1.30;;;;;;;;;;6246185;23;20032;-86
2023/05/30 11:30:33;;;;;;;5.40;1.30;;;;;;;;;;6245906;23;20022;-86
2023/05/30 11:33:00;;;;;;;5.22;1.60;;;;;;;;;;6244895;23;20024;-90
2023/05/30 11:35:28;;;;;;;5.30;1.60;;;;;;;;;;6246291;23;20016;-86
2023/05/30 11:37:59;;;;;;;4.05;1.73;;;;;;;;;;6247231;23;20093;-84
2023/05/30 11:40:26;;;;;;;7.82;1.75;;;;;;;;;;6246210;23;20020;-86
2023/05/30 11:42:54;;;;;;;6.32;1.90;;;;;;;;;;6245983;23;20016;-85
2023/05/30 11:45:25;;;;;;;3.33;1.40;;;;;;;;;;6245973;23;20024;-84
2023/05/30 11:47:52;;;;;;;2.20;1.17;;;;;;;;;;6245962;23;20012;-85
2023/05/30 11:50:21;;;;;;;4.78;1.50;;;;;;;;;;6246611;23;20099;-83
2023/05/30 11:52:48;;;;;;;5.50;1.60;;;;;;;;;;6245811;23;20066;-87
2023/05/30 11:55:16;;;;;;;6.07;1.23;;;;;;;;;;6245551;23;20050;-88
2023/05/30 11:57:43;;;;;;;4.50;1.30;;;;;;;;;;6245898;23;20023;-85
2023/05/30 12:00:14;;;;;;;3.65;1.50;;;;;;;;;;6245752;23;20071;-88
2023/05/30 12:02:42;;;;;;;5.43;1.40;;;;;;;;;;6245759;23;20012;-87
2023/05/30 12:05:09;;;;;;;6.43;1.27;;;;;;;;;;6245134;23;20393;-89
2023/05/30 12:07:37;;;;;;;1.50;1.23;;;;;;;;;;6245639;23;20023;-84
2023/05/30 12:10:05;;;;;;;7.00;1.45;;;;;;;;;;6245989;23;20372;-84
2023/05/30 12:12:32;;;;;;;2.58;1.15;;;;;;;;;;6245575;23;20069;-85
2023/05/30 12:15:04;;;;;;;3.60;1.50;;;;;;;;;;6245892;23;20078;-86
2023/05/30 12:17:31;;;;;;;2.55;1.42;;;;;;;;;;6245964;23;20059;-85
2023/05/30 12:20:00;;;;;;;3.15;1.40;;;;;;;;;;6244315;23;20024;-86
2023/05/30 12:22:30;;;;;;;1.98;1.23;;;;;;;;;;6244615;23;20074;-87
2023/05/30 12:24:58;;;;;;;3.22;1.27;;;;;;;;;;6244898;23;20484;-84
2023/05/30 12:27:26;;;;;;;3.75;1.60;;;;;;;;;;6246289;23;20020;-86
2023/05/30 12:29:54;;;;;;;8.35;1.55;;;;;;;;;;6245439;23;20016;-85
2023/05/30 12:32:23;;;;;;;4.93;1.50;;;;;;;;;;6245004;23;20103;-86
2023/05/30 12:34:51;;;;;;;7.30;1.27;;;;;;;;;;6245029;23;20020;-85
2023/05/30 12:37:18;;;;;;;3.97;1.42;;;;;;;;;;6245296;23;20016;-83
2023/05/30 12:39:57;;;;;;;5.85;1.48;;;;;;;;;;6246697;23;20024;-85
2023/05/30 12:42:25;;;;;;;4.32;1.30;;;;;;;;;;6245703;23;20024;-91
2023/05/30 12:44:53;;;;;;;5.13;1.00;;;;;;;;;;6245420;23;20094;-84
2023/05/30 12:47:21;;;;;;;4.00;1.27;;;;;;;;;;6246113;23;20062;-84
2023/05/30 12:49:48;;;;;;;4.10;1.65;;;;;;;;;;6245286;23;20082;-84
2023/05/30 12:52:17;;;;;;;4.53;1.58;;;;;;;;;;6245141;23;20070;-91
2023/05/30 12:54:45;;;;;;;5.40;1.55;;;;;;;;;;6244773;23;20020;-84
2023/05/30 12:57:12;;;;;;;3.35;1.48;;;;;;;;;;6244873;23;20012;-86
2023/05/30 12:59:40;;;;;;;4.70;1.63;;;;;;;;;;6244946;23;20024;-86
2023/05/30 13:02:09;;;;;;;6.80;1.45;;;;;;;;;;6244762;23;20020;-84
2023/05/30 13:04:40;;;;;;;4.38;1.50;;;;;;;;;;6246558;23;20457;-84
2023/05/30 13:07:11;;;;;;;2.78;1.30;;;;;;;;;;6246711;23;20063;-88
2023/05/30 13:09:42;;;;;;;4.10;1.50;;;;;;;;;;6244678;23;20119;-84
2023/05/30 13:12:09;;;;;;;6.40;1.70;;;;;;;;;;6244438;23;20066;-84
2023/05/30 13:14:37;;;;;;;4.82;1.27;;;;;;;;;;6246064;23;20032;-86
2023/05/30 13:17:05;;;;;;;5.47;1.70;;;;;;;;;;6243873;23;20350;-86
2023/05/30 13:19:33;;;;;;;3.80;1.33;;;;;;;;;;6244273;23;20222;-84
2023/05/30 13:22:00;;;;;;;12.85;1.95;;;;;;;;;;6244536;23;20077;-83
2023/05/30 13:24:28;;;;;;;6.95;1.70;;;;;;;;;;6246044;23;20024;-84
2023/05/30 13:26:56;;;;;;;8.80;1.88;;;;;;;;;;6244426;23;20012;-83
2023/05/30 13:29:23;;;;;;;4.60;1.60;;;;;;;;;;6244880;23;20110;-85
2023/05/30 13:31:50;;;;;;;5.35;1.58;;;;;;;;;;6244120;23;20024;-84
2023/05/30 13:34:17;;;;;;;4.35;1.48;;;;;;;;;;6244703;23;20070;-85
2023/05/30 13:36:45;;;;;;;5.97;1.88;;;;;;;;;;6244756;23;20373;-84
2023/05/30 13:39:12;;;;;;;4.50;1.60;;;;;;;;;;6244200;23;20031;-83
2023/05/30 13:41:39;;;;;;;1.92;1.30;;;;;;;;;;6244720;23;20043;-81
2023/05/30 13:44:07;;;;;;;4.57;1.92;;;;;;;;;;6244628;23;20020;-86
2023/05/30 13:46:34;;;;;;;5.53;1.70;;;;;;;;;;6244588;23;20016;-89
2023/05/30 13:49:04;;;;;;;4.00;1.73;;;;;;;;;;6244587;23;20016;-86
2023/05/30 13:51:35;;;;;;;4.90;1.60;;;;;;;;;;6245182;23;20511;-83
2023/05/30 13:54:03;;;;;;;6.47;1.55;;;;;;;;;;6244512;23;20016;-85
2023/05/30 13:56:30;;;;;;;12.48;2.10;;;;;;;;;;6245598;23;20039;-84
2023/05/30 13:58:58;;;;;;;4.22;1.55;;;;;;;;;;6244260;23;20070;-87
2023/05/30 14:01:29;;;;;;;11.45;1.60;;;;;;;;;;6244172;23;20516;-85
2023/05/30 14:03:56;;;;;;;5.43;1.60;;;;;;;;;;6245744;23;20012;-89
2023/05/30 14:06:24;;;;;;;5.03;1.55;;;;;;;;;;6244378;23;20016;-86
2023/05/30 14:08:52;;;;;;;6.00;1.55;;;;;;;;;;6245844;23;20508;-91
2023/05/30 14:11:20;;;;;;;5.60;1.50;;;;;;;;;;6244432;23;20074;-89
2023/05/30 14:13:48;;;;;;;6.72;1.52;;;;;;;;;;6244664;23;20020;-84
2023/05/30 14:16:16;;;;;;;4.78;1.40;;;;;;;;;;6244106;23;20039;-86
2023/05/30 14:18:46;;;;;;;4.63;1.52;;;;;;;;;;6244585;23;20475;-89
2023/05/30 14:21:14;;;;;;;12.57;2.42;;;;;;;;;;6244990;23;20352;-88
2023/05/30 14:23:42;;;;;;;5.28;1.65;;;;;;;;;;6244968;23;20446;-87
2023/05/30 14:26:18;;;;;;;2.78;1.20;;;;;;;;;;6244970;23;20044;-82
2023/05/30 14:28:47;;;;;;;6.10;1.35;;;;;;;;;;6245432;23;20070;-85
2023/05/30 14:31:14;;;;;;;5.63;1.20;;;;;;;;;;6246148;23;20035;-84
2023/05/30 14:33:41;;;;;;;4.03;1.55;;;;;;;;;;6246971;23;20020;-88
2023/05/30 14:36:09;;;;;;;6.78;2.15;;;;;;;;;;6247212;23;20020;-88
2023/05/30 14:38:36;;;;;;;5.22;3.17;;;;;;;;;;6247421;23;20034;-84
2023/05/30 14:41:04;;;;;;;6.50;1.60;;;;;;;;;;6247603;23;20016;-84
2023/05/30 14:43:31;;;;;;;5.85;1.65;;;;;;;;;;6247371;23;20024;-86
2023/05/30 14:45:58;;;;;;;2.83;1.27;;;;;;;;;;6247481;23;20031;-85
2023/05/30 14:48:26;;;;;;;5.60;1.60;;;;;;;;;;6246243;23;20342;-87
2023/05/30 14:50:54;;;;;;;5.68;1.67;;;;;;;;;;6246174;23;20020;-86